Time;durP1;ratioP1;P1;durP2;ratioP2;P2;SDS_P1;SDS_P2;PMS_P1;PMS_P2;Temp;Humidity;BMP_temperature;BMP_pressure;BME280_temperature;BME280_humidity;BME280_pressure;Samples;Min_cycle;Max_cycle;Signal;HPM_P1;HPM_P2
2023/07/11 00:00:54;;;;;;;4.70;2.03;;;14.90;99.90;;;;;;5049242;28;20116;-74
2023/07/11 00:03:20;;;;;;;3.25;2.05;;;14.90;99.90;;;;;;5050175;28;20033;-74
2023/07/11 00:06:01;;;;;;;2.97;1.80;;;14.90;99.90;;;;;;5049457;28;20036;-74
2023/07/11 00:08:26;;;;;;;3.22;2.40;;;14.80;99.90;;;;;;5049893;28;20029;-73
2023/07/11 00:10:52;;;;;;;5.03;2.10;;;14.90;99.90;;;;;;5049313;28;20040;-74
2023/07/11 00:13:18;;;;;;;5.10;2.47;;;14.90;99.90;;;;;;5049845;28;20033;-72
2023/07/11 00:15:44;;;;;;;4.05;2.45;;;14.90;99.90;;;;;;5049290;28;20028;-72
2023/07/11 00:18:09;;;;;;;4.45;2.60;;;14.80;99.90;;;;;;5049588;28;20466;-73
2023/07/11 00:20:35;;;;;;;4.00;2.75;;;14.80;99.90;;;;;;5048491;28;20029;-72
2023/07/11 00:23:01;;;;;;;5.20;3.03;;;14.80;99.90;;;;;;5048996;28;20099;-72
2023/07/11 00:25:26;;;;;;;10.23;2.83;;;14.80;99.90;;;;;;5049347;28;20092;-73
2023/07/11 00:27:52;;;;;;;3.08;2.47;;;14.80;99.90;;;;;;5048979;28;20111;-72
2023/07/11 00:30:18;;;;;;;5.10;2.92;;;14.80;99.90;;;;;;5049138;28;20052;-72
2023/07/11 00:32:43;;;;;;;7.80;2.88;;;14.90;99.90;;;;;;5048512;28;20447;-73
2023/07/11 00:35:09;;;;;;;6.38;3.00;;;15.00;99.90;;;;;;5049388;28;20025;-72
2023/07/11 00:37:35;;;;;;;8.13;2.83;;;15.00;99.90;;;;;;5049234;28;20389;-72
2023/07/11 00:40:01;;;;;;;9.82;3.55;;;15.00;99.90;;;;;;5049183;28;20025;-72
2023/07/11 00:42:27;;;;;;;6.25;2.95;;;15.00;99.90;;;;;;5053110;28;20032;-72
2023/07/11 00:44:56;;;;;;;8.35;3.42;;;15.00;99.90;;;;;;5052434;28;20072;-72
2023/07/11 00:47:26;;;;;;;5.55;3.13;;;15.00;99.90;;;;;;5052686;28;20029;-73
2023/07/11 00:50:00;;;;;;;5.45;3.15;;;15.00;99.90;;;;;;5052477;28;20363;-72
2023/07/11 00:52:28;;;;;;;6.22;3.53;;;15.00;99.90;;;;;;5053536;28;20029;-72
2023/07/11 00:54:58;;;;;;;7.20;3.30;;;15.10;99.90;;;;;;5052767;28;20034;-73
2023/07/11 00:57:26;;;;;;;7.20;3.33;;;15.10;99.90;;;;;;5053344;28;20029;-73
2023/07/11 00:59:52;;;;;;;6.50;3.10;;;15.10;99.90;;;;;;5052691;28;20029;-73
2023/07/11 01:02:22;;;;;;;5.10;3.17;;;15.10;99.90;;;;;;5053221;28;20049;-72
2023/07/11 01:04:48;;;;;;;6.55;3.53;;;15.20;99.90;;;;;;5052812;28;20027;-73
2023/07/11 01:07:19;;;;;;;7.70;3.60;;;15.20;99.90;;;;;;5052929;28;20050;-72
2023/07/11 01:09:45;;;;;;;6.68;3.28;;;15.10;99.90;;;;;;5052596;28;20061;-73
2023/07/11 01:12:14;;;;;;;6.93;3.22;;;15.20;99.90;;;;;;5053106;28;20124;-73
2023/07/11 01:14:42;;;;;;;10.07;3.40;;;15.10;99.90;;;;;;5052725;28;20112;-73
2023/07/11 01:17:28;;;;;;;9.18;3.13;;;15.10;99.90;;;;;;5052623;28;20056;-73
2023/07/11 01:19:56;;;;;;;5.90;3.38;;;15.20;99.90;;;;;;5052474;28;20022;-73
2023/07/11 01:22:23;;;;;;;4.97;3.03;;;15.20;99.90;;;;;;5052779;28;20025;-73
2023/07/11 01:24:50;;;;;;;4.03;2.90;;;15.10;99.90;;;;;;5052413;28;20184;-73
2023/07/11 01:27:17;;;;;;;6.40;3.08;;;15.10;99.90;;;;;;5052497;28;20136;-73
2023/07/11 01:29:43;;;;;;;5.97;2.85;;;15.10;99.90;;;;;;5052766;28;20056;-75
2023/07/11 01:32:10;;;;;;;6.65;3.20;;;15.10;99.90;;;;;;5051868;28;20037;-73
2023/07/11 01:34:36;;;;;;;6.93;2.95;;;15.10;99.90;;;;;;5052635;28;20029;-72
2023/07/11 01:37:01;;;;;;;6.20;2.95;;;15.10;99.90;;;;;;5051671;28;20029;-73
2023/07/11 01:39:27;;;;;;;6.05;2.80;;;15.10;99.90;;;;;;5052320;28;20031;-72
2023/07/11 01:41:53;;;;;;;5.13;2.70;;;15.10;99.90;;;;;;5051514;28;20151;-73
2023/07/11 01:44:22;;;;;;;6.32;2.60;;;15.10;99.90;;;;;;5052072;28;20025;-72
2023/07/11 01:46:47;;;;;;;7.32;2.63;;;15.10;99.90;;;;;;5051442;28;20028;-74
2023/07/11 01:49:13;;;;;;;8.00;3.03;;;15.00;99.90;;;;;;5052075;28;20029;-73
2023/07/11 01:51:39;;;;;;;9.60;2.60;;;15.00;99.90;;;;;;5051412;28;20037;-73
2023/07/11 01:54:04;;;;;;;5.88;2.88;;;14.90;99.90;;;;;;5052144;28;20245;-73
2023/07/11 01:56:30;;;;;;;9.05;2.92;;;14.90;99.90;;;;;;5052442;28;20028;-73
2023/07/11 01:58:56;;;;;;;4.13;2.78;;;14.90;99.90;;;;;;5052157;28;20025;-72
2023/07/11 02:01:21;;;;;;;7.57;3.00;;;14.90;99.90;;;;;;5052129;28;20082;-73
2023/07/11 02:03:47;;;;;;;7.68;2.50;;;14.80;99.90;;;;;;5052104;28;20021;-74
2023/07/11 02:06:13;;;;;;;5.97;2.60;;;14.80;99.90;;;;;;5052169;28;20056;-72
2023/07/11 02:08:38;;;;;;;5.82;2.70;;;14.80;99.90;;;;;;5052224;28;20021;-72
2023/07/11 02:11:04;;;;;;;5.47;2.40;;;14.80;99.90;;;;;;5051099;28;20324;-72
2023/07/11 02:13:30;;;;;;;4.45;2.78;;;14.70;99.90;;;;;;5050563;28;20461;-72
2023/07/11 02:15:56;;;;;;;7.07;2.90;;;14.60;99.90;;;;;;5050942;28;20057;-72
2023/07/11 02:18:22;;;;;;;7.57;2.90;;;14.60;99.90;;;;;;5051722;28;20100;-72
2023/07/11 02:20:47;;;;;;;5.18;2.63;;;14.60;99.90;;;;;;5051311;28;20076;-75
2023/07/11 02:23:14;;;;;;;6.57;3.08;;;14.60;99.90;;;;;;5051543;28;20435;-72
2023/07/11 02:25:40;;;;;;;8.52;3.63;;;14.50;99.90;;;;;;5051698;28;20091;-72
2023/07/11 02:28:06;;;;;;;4.10;2.58;;;14.50;99.90;;;;;;5049353;28;20044;-72
2023/07/11 02:30:34;;;;;;;8.30;3.75;;;14.50;99.90;;;;;;5051280;28;20049;-72
2023/07/11 02:33:00;;;;;;;6.90;3.53;;;14.50;99.90;;;;;;5050717;28;20485;-73
2023/07/11 02:35:25;;;;;;;6.78;3.28;;;14.50;99.90;;;;;;5051830;28;20166;-72
2023/07/11 02:37:51;;;;;;;8.10;3.30;;;14.50;99.90;;;;;;5051337;28;20033;-73
2023/07/11 02:40:18;;;;;;;5.40;3.05;;;14.50;99.90;;;;;;5051461;28;20133;-73
2023/07/11 02:42:44;;;;;;;6.97;3.28;;;14.60;99.90;;;;;;5051654;28;20036;-72
2023/07/11 02:45:10;;;;;;;10.30;4.07;;;14.60;99.90;;;;;;5050908;28;20029;-73
2023/07/11 02:47:36;;;;;;;7.15;3.30;;;14.60;99.90;;;;;;5051369;28;20386;-72
2023/07/11 02:50:02;;;;;;;6.25;2.97;;;14.60;99.90;;;;;;5050963;28;20021;-73
2023/07/11 02:52:27;;;;;;;7.10;3.08;;;14.60;99.90;;;;;;5051403;28;20025;-72
2023/07/11 02:54:53;;;;;;;7.20;3.45;;;14.60;99.90;;;;;;5050984;28;20091;-73
2023/07/11 02:57:19;;;;;;;4.75;2.55;;;14.70;99.90;;;;;;5051267;28;20450;-72
2023/07/11 02:59:44;;;;;;;6.85;3.00;;;14.70;99.90;;;;;;5051178;28;20029;-72
2023/07/11 03:02:10;;;;;;;5.78;3.10;;;14.70;99.90;;;;;;5051072;28;20025;-71
2023/07/11 03:04:36;;;;;;;6.10;3.00;;;14.80;99.90;;;;;;5050732;28;20021;-71
2023/07/11 03:07:02;;;;;;;6.90;2.65;;;14.80;99.90;;;;;;5050651;28;20068;-73
2023/07/11 03:09:28;;;;;;;5.45;2.80;;;14.80;99.90;;;;;;5050791;28;20032;-74
2023/07/11 03:11:54;;;;;;;5.00;2.40;;;14.80;99.90;;;;;;5050636;28;20454;-72
2023/07/11 03:14:20;;;;;;;7.55;3.00;;;14.80;99.90;;;;;;5051457;28;20323;-72
2023/07/11 03:16:51;;;;;;;8.60;2.90;;;14.80;99.90;;;;;;5051022;28;20017;-72
2023/07/11 03:19:21;;;;;;;5.22;2.70;;;14.70;99.90;;;;;;5051052;28;20095;-72
2023/07/11 03:21:50;;;;;;;4.90;2.35;;;14.70;99.90;;;;;;5050979;28;20024;-73
2023/07/11 03:24:16;;;;;;;6.43;2.45;;;14.70;99.90;;;;;;5050842;28;20024;-72
2023/07/11 03:26:45;;;;;;;7.85;2.70;;;14.70;99.90;;;;;;5051019;28;20021;-74
2023/07/11 03:29:13;;;;;;;6.95;2.83;;;14.70;99.90;;;;;;5050085;28;20071;-72
2023/07/11 03:31:39;;;;;;;4.18;2.50;;;14.70;99.90;;;;;;5051001;28;20033;-73
2023/07/11 03:34:05;;;;;;;6.88;2.60;;;14.80;99.90;;;;;;5050362;28;20057;-72
2023/07/11 03:36:31;;;;;;;3.85;2.60;;;14.70;99.90;;;;;;5050545;28;20021;-72
2023/07/11 03:38:57;;;;;;;5.68;2.50;;;14.80;99.90;;;;;;5049662;28;20021;-73
2023/07/11 03:41:22;;;;;;;8.48;2.33;;;14.80;99.90;;;;;;5049180;28;20028;-72
2023/07/11 03:43:48;;;;;;;5.95;2.50;;;14.70;99.90;;;;;;5050635;28;20139;-72
2023/07/11 03:46:14;;;;;;;5.45;2.58;;;14.80;99.90;;;;;;5049781;28;20088;-72
2023/07/11 03:48:40;;;;;;;8.55;2.75;;;14.80;99.90;;;;;;5050100;28;20029;-72
2023/07/11 03:51:05;;;;;;;4.40;2.67;;;14.80;99.90;;;;;;5049565;28;20482;-72
2023/07/11 03:53:31;;;;;;;4.57;2.72;;;14.80;99.90;;;;;;5049853;28;20446;-72
2023/07/11 03:55:57;;;;;;;7.03;2.63;;;14.80;99.90;;;;;;5050143;28;20104;-72
2023/07/11 03:58:24;;;;;;;4.38;3.17;;;14.80;99.90;;;;;;5050306;28;20025;-72
2023/07/11 04:00:50;;;;;;;9.60;3.55;;;14.80;99.90;;;;;;5050553;28;20033;-72
2023/07/11 04:03:15;;;;;;;10.10;3.22;;;14.80;99.90;;;;;;5049684;28;20028;-72
2023/07/11 04:05:42;;;;;;;8.50;3.20;;;14.80;99.90;;;;;;5049898;28;20052;-72
2023/07/11 04:08:08;;;;;;;9.07;3.30;;;14.80;99.90;;;;;;5049747;28;20036;-72
2023/07/11 04:10:34;;;;;;;7.35;3.25;;;14.70;99.90;;;;;;5049968;28;20086;-72
2023/07/11 04:13:00;;;;;;;6.05;3.10;;;14.80;99.90;;;;;;5049176;28;20457;-72
2023/07/11 04:15:26;;;;;;;8.77;3.60;;;14.70;99.90;;;;;;5051506;28;20091;-72
2023/07/11 04:17:52;;;;;;;5.80;3.63;;;14.80;99.90;;;;;;5054107;28;20029;-72
2023/07/11 04:20:18;;;;;;;9.85;3.60;;;14.80;99.90;;;;;;5053636;28;20086;-72
2023/07/11 04:22:43;;;;;;;11.18;4.05;;;14.80;99.90;;;;;;5053718;28;20068;-72
2023/07/11 04:25:09;;;;;;;9.35;3.80;;;14.80;99.90;;;;;;5053249;28;20095;-72
2023/07/11 04:27:35;;;;;;;8.15;3.90;;;14.80;99.90;;;;;;5054008;28;20494;-72
2023/07/11 04:30:01;;;;;;;7.35;3.67;;;14.90;99.90;;;;;;5052997;28;20053;-72
2023/07/11 04:32:28;;;;;;;7.40;3.53;;;14.90;99.90;;;;;;5054012;28;20152;-72
2023/07/11 04:34:54;;;;;;;9.23;3.45;;;14.90;99.90;;;;;;5053624;28;20334;-72
2023/07/11 04:37:19;;;;;;;3.67;3.13;;;14.90;99.90;;;;;;5053475;28;20075;-72
2023/07/11 04:39:45;;;;;;;5.45;3.28;;;14.90;99.90;;;;;;5054406;28;20060;-72
2023/07/11 04:42:11;;;;;;;5.82;3.25;;;14.90;99.90;;;;;;5052115;28;20036;-72
2023/07/11 04:44:37;;;;;;;7.25;3.85;;;14.90;99.90;;;;;;5054166;28;20031;-72
2023/07/11 04:47:03;;;;;;;8.88;3.90;;;14.80;99.90;;;;;;5053846;28;20074;-73
2023/07/11 04:49:29;;;;;;;7.75;3.33;;;14.80;99.90;;;;;;5053604;28;20025;-72
2023/07/11 04:51:55;;;;;;;7.25;3.38;;;14.80;99.90;;;;;;5053658;28;20033;-72
2023/07/11 04:54:21;;;;;;;6.65;3.88;;;14.80;99.90;;;;;;5053356;28;20025;-72
2023/07/11 04:56:58;;;;;;;6.05;2.97;;;14.80;99.90;;;;;;5054027;28;20203;-72
2023/07/11 04:59:25;;;;;;;5.40;3.50;;;14.90;99.90;;;;;;5052191;28;20119;-72
2023/07/11 05:01:50;;;;;;;5.93;3.28;;;14.90;99.90;;;;;;5053996;28;20037;-72
2023/07/11 05:04:16;;;;;;;8.63;3.80;;;14.90;99.90;;;;;;5052767;28;20029;-72
2023/07/11 05:06:42;;;;;;;7.78;3.95;;;14.90;99.90;;;;;;5053445;28;20025;-72
2023/07/11 05:09:08;;;;;;;6.13;3.47;;;14.90;99.90;;;;;;5052846;28;20154;-72
2023/07/11 05:11:36;;;;;;;6.13;3.47;;;15.00;99.90;;;;;;5053382;28;20116;-72
2023/07/11 05:14:04;;;;;;;9.00;3.58;;;15.00;99.90;;;;;;5052435;28;20029;-73
2023/07/11 05:16:31;;;;;;;6.65;3.65;;;15.00;99.90;;;;;;5053906;28;20380;-72
2023/07/11 05:18:58;;;;;;;5.53;3.08;;;15.00;99.90;;;;;;5051553;28;20176;-72
2023/07/11 05:21:25;;;;;;;8.85;3.17;;;15.00;99.90;;;;;;5051490;28;20028;-72
2023/07/11 05:23:50;;;;;;;9.50;3.60;;;15.00;99.90;;;;;;5052496;28;20050;-72
2023/07/11 05:26:17;;;;;;;8.02;3.60;;;14.90;99.90;;;;;;5052448;28;20460;-72
2023/07/11 05:28:44;;;;;;;4.03;3.00;;;14.90;99.90;;;;;;5052677;28;20041;-72
2023/07/11 05:31:10;;;;;;;8.02;3.30;;;14.90;99.90;;;;;;5050912;28;20060;-72
2023/07/11 05:33:36;;;;;;;5.07;2.65;;;14.90;99.90;;;;;;5052949;28;20028;-72
2023/07/11 05:38:47;;;;;;;5.55;3.00;;;15.00;99.90;;;;;;5052645;28;20033;-72
2023/07/11 05:41:13;;;;;;;11.30;3.25;;;14.90;99.90;;;;;;5051217;28;20036;-72
2023/07/11 05:43:39;;;;;;;6.03;2.92;;;14.90;99.90;;;;;;5052629;28;20108;-72
2023/07/11 05:46:05;;;;;;;5.30;2.70;;;14.90;99.90;;;;;;5052304;28;20104;-72
2023/07/11 05:48:31;;;;;;;6.13;3.35;;;14.90;99.90;;;;;;5052900;28;20029;-72
2023/07/11 05:51:02;;;;;;;6.63;3.47;;;15.00;99.90;;;;;;5052823;28;20086;-72
2023/07/11 05:53:28;;;;;;;5.57;2.72;;;14.90;99.90;;;;;;5052807;28;20475;-72
2023/07/11 05:55:58;;;;;;;7.07;3.50;;;14.90;99.90;;;;;;5052843;28;20044;-73
2023/07/11 05:58:25;;;;;;;6.55;3.80;;;14.90;99.90;;;;;;5053093;28;20066;-73
2023/07/11 06:00:52;;;;;;;5.25;3.40;;;15.00;99.90;;;;;;5052968;28;20036;-72
2023/07/11 06:03:19;;;;;;;8.15;3.83;;;15.00;99.90;;;;;;5052697;28;20502;-72
2023/07/11 06:05:45;;;;;;;4.43;3.35;;;15.00;99.90;;;;;;5051602;28;20046;-72
2023/07/11 06:08:12;;;;;;;7.68;3.40;;;15.00;99.90;;;;;;5052283;28;20515;-73
2023/07/11 06:10:38;;;;;;;10.43;3.08;;;15.10;99.90;;;;;;5052419;28;20086;-72
2023/07/11 06:13:04;;;;;;;5.05;2.85;;;15.20;99.90;;;;;;5051080;28;20044;-74
2023/07/11 06:15:30;;;;;;;9.75;3.47;;;15.30;99.90;;;;;;5050381;28;20025;-72
2023/07/11 06:17:56;;;;;;;7.53;3.13;;;15.40;99.90;;;;;;5052139;28;20409;-72
2023/07/11 06:20:23;;;;;;;6.80;3.20;;;15.40;99.90;;;;;;5051142;28;20029;-72
2023/07/11 06:22:49;;;;;;;4.75;2.80;;;15.40;99.90;;;;;;5051742;28;20025;-71
2023/07/11 06:25:15;;;;;;;8.13;3.38;;;15.50;99.90;;;;;;5050782;28;20033;-72
2023/07/11 06:27:41;;;;;;;6.03;2.75;;;15.50;99.90;;;;;;5052134;28;20434;-71
2023/07/11 06:30:07;;;;;;;8.05;3.00;;;15.50;99.90;;;;;;5050991;28;20054;-72
2023/07/11 06:32:33;;;;;;;3.97;2.53;;;15.40;99.90;;;;;;5052005;28;20037;-72
2023/07/11 06:34:59;;;;;;;6.68;2.90;;;15.40;99.90;;;;;;5051803;28;20421;-72
2023/07/11 06:37:24;;;;;;;5.13;2.72;;;15.40;99.90;;;;;;5051443;28;20051;-72
2023/07/11 06:39:50;;;;;;;8.27;2.50;;;15.40;99.90;;;;;;5051261;28;20025;-72
2023/07/11 06:42:17;;;;;;;9.48;2.55;;;15.40;99.90;;;;;;5051053;28;20033;-73
2023/07/11 06:44:43;;;;;;;7.43;2.70;;;15.40;99.90;;;;;;5051607;28;20442;-73
2023/07/11 06:47:09;;;;;;;5.63;2.40;;;15.40;99.90;;;;;;5051230;28;20033;-73
2023/07/11 06:49:35;;;;;;;5.50;3.20;;;15.40;99.90;;;;;;5051342;28;20341;-73
2023/07/11 06:52:02;;;;;;;5.80;2.80;;;15.50;99.90;;;;;;5051088;28;20229;-72
2023/07/11 06:54:28;;;;;;;8.30;2.92;;;15.40;99.90;;;;;;5050637;28;20016;-72
2023/07/11 06:56:54;;;;;;;4.78;2.40;;;15.40;99.90;;;;;;5050703;28;20021;-73
2023/07/11 06:59:21;;;;;;;7.03;3.15;;;15.50;99.90;;;;;;5050606;28;20029;-72
2023/07/11 07:01:47;;;;;;;4.93;2.40;;;15.50;99.90;;;;;;5051037;28;20025;-72
2023/07/11 07:04:16;;;;;;;5.15;2.70;;;15.50;99.90;;;;;;5050101;28;20100;-73
2023/07/11 07:06:43;;;;;;;5.47;3.03;;;15.50;99.90;;;;;;5051018;28;20462;-73
2023/07/11 07:09:10;;;;;;;6.97;3.42;;;15.60;99.90;;;;;;5050028;28;20462;-73
2023/07/11 07:11:36;;;;;;;7.63;4.45;;;15.60;99.90;;;;;;5050559;28;20446;-72
2023/07/11 07:14:04;;;;;;;5.10;4.13;;;15.70;99.90;;;;;;5050577;28;20060;-72
2023/07/11 07:16:32;;;;;;;8.35;4.78;;;15.80;99.90;;;;;;5048682;28;20071;-72
2023/07/11 07:18:58;;;;;;;10.10;5.63;;;15.90;99.90;;;;;;5050550;28;20033;-72
2023/07/11 07:21:24;;;;;;;8.27;5.57;;;16.10;99.90;;;;;;5049876;28;20033;-72
2023/07/11 07:23:49;;;;;;;6.50;5.60;;;16.20;99.90;;;;;;5050534;28;20425;-72
2023/07/11 07:26:15;;;;;;;9.73;6.20;;;16.10;99.90;;;;;;5049584;28;20029;-72
2023/07/11 07:28:41;;;;;;;6.65;5.90;;;16.10;99.90;;;;;;5049840;28;20110;-72
2023/07/11 07:31:07;;;;;;;8.30;6.40;;;16.10;99.90;;;;;;5050230;28;20113;-75
2023/07/11 07:33:33;;;;;;;10.80;7.10;;;16.10;99.90;;;;;;5049994;28;20032;-72
2023/07/11 07:36:02;;;;;;;7.18;5.85;;;16.20;99.90;;;;;;5050439;28;20462;-72
2023/07/11 07:38:28;;;;;;;7.55;6.10;;;16.30;99.90;;;;;;5049720;28;20039;-72
2023/07/11 07:40:56;;;;;;;8.50;5.90;;;16.50;99.90;;;;;;5050183;28;20029;-72
2023/07/11 07:43:22;;;;;;;8.32;5.47;;;16.50;99.90;;;;;;5049669;28;20032;-72
2023/07/11 07:45:52;;;;;;;6.93;4.70;;;16.80;99.90;;;;;;5050342;28;20105;-71
2023/07/11 07:48:19;;;;;;;7.43;4.22;;;17.00;99.90;;;;;;5049420;28;20463;-72
2023/07/11 07:50:45;;;;;;;5.07;2.95;;;17.30;99.90;;;;;;5049032;28;20132;-72
2023/07/11 07:53:15;;;;;;;4.95;3.22;;;17.50;99.90;;;;;;5049425;28;20033;-73
2023/07/11 07:55:41;;;;;;;3.70;3.00;;;17.60;99.90;;;;;;5049981;28;20051;-72
2023/07/11 07:58:07;;;;;;;7.03;2.90;;;17.60;99.90;;;;;;5049886;28;20102;-72
2023/07/11 08:00:33;;;;;;;6.70;3.22;;;17.50;99.90;;;;;;5049116;28;20149;-72
2023/07/11 08:02:59;;;;;;;5.22;2.92;;;17.40;99.90;;;;;;5049887;28;20031;-72
2023/07/11 08:05:26;;;;;;;3.47;2.80;;;17.10;99.90;;;;;;5049341;28;20017;-72
2023/07/11 08:07:52;;;;;;;4.63;2.40;;;17.00;99.90;;;;;;5049812;28;20021;-72
2023/07/11 08:10:18;;;;;;;4.65;2.55;;;16.80;99.90;;;;;;5048945;28;20119;-72
2023/07/11 08:12:44;;;;;;;5.38;2.95;;;16.70;99.90;;;;;;5047873;28;20467;-71
2023/07/11 08:15:11;;;;;;;7.00;2.72;;;16.70;99.90;;;;;;5049444;28;20029;-74
2023/07/11 08:17:38;;;;;;;6.03;2.75;;;16.90;99.90;;;;;;5049853;28;20029;-72
2023/07/11 08:20:07;;;;;;;3.47;2.17;;;17.10;99.90;;;;;;5048439;28;20384;-72
2023/07/11 08:22:32;;;;;;;5.57;2.08;;;17.20;99.90;;;;;;5048663;28;20029;-72
2023/07/11 08:24:58;;;;;;;7.75;2.35;;;17.50;99.90;;;;;;5050036;28;20029;-73
2023/07/11 08:27:24;;;;;;;5.63;2.20;;;17.60;99.90;;;;;;5047228;28;20032;-72
2023/07/11 08:29:50;;;;;;;4.28;2.33;;;17.90;99.90;;;;;;5049664;28;20053;-71
2023/07/11 08:32:18;;;;;;;7.35;2.28;;;18.10;99.90;;;;;;5048570;28;20048;-73
2023/07/11 08:34:43;;;;;;;4.07;2.30;;;18.10;99.90;;;;;;5047795;28;20031;-72
2023/07/11 08:37:10;;;;;;;3.08;2.05;;;18.30;99.90;;;;;;5049661;28;20409;-72
2023/07/11 08:39:37;;;;;;;2.75;1.90;;;18.30;99.90;;;;;;5049291;28;20086;-71
2023/07/11 08:42:40;;;;;;;3.03;1.77;;;18.40;99.90;;;;;;5049823;28;20029;-72
2023/07/11 08:45:22;;;;;;;3.75;1.80;;;18.40;99.90;;;;;;5028163;28;20450;-72
2023/07/11 08:48:03;;;;;;;4.82;2.30;;;18.50;99.90;;;;;;5049690;28;20029;-72
2023/07/11 08:51:02;;;;;;;5.15;2.38;;;18.50;99.90;;;;;;5049214;28;20025;-72
2023/07/11 08:53:33;;;;;;;5.25;2.15;;;18.60;99.90;;;;;;5048687;28;20466;-72
2023/07/11 08:56:21;;;;;;;3.50;2.35;;;18.60;99.90;;;;;;5049903;28;20060;-72
2023/07/11 08:58:49;;;;;;;5.55;2.45;;;18.70;99.90;;;;;;5049604;28;20029;-72
2023/07/11 09:01:37;;;;;;;3.67;1.77;;;18.70;99.90;;;;;;5049978;28;20111;-73
2023/07/11 09:04:04;;;;;;;2.53;1.73;;;18.80;99.90;;;;;;5053621;28;20112;-72
2023/07/11 09:06:47;;;;;;;4.70;2.00;;;19.00;99.90;;;;;;5052491;28;20028;-72
2023/07/11 09:09:12;;;;;;;5.15;2.10;;;19.10;99.90;;;;;;5053002;28;20053;-74
2023/07/11 09:12:01;;;;;;;5.38;2.15;;;19.10;99.90;;;;;;5052470;28;20466;-72
2023/07/11 09:14:39;;;;;;;4.63;1.80;;;19.00;99.90;;;;;;5045874;28;20041;-73
2023/07/11 09:17:26;;;;;;;3.97;2.22;;;19.10;99.90;;;;;;5052840;28;20108;-74
2023/07/11 09:20:19;;;;;;;6.55;2.20;;;19.40;99.90;;;;;;5053424;28;20029;-73
2023/07/11 09:23:09;;;;;;;3.80;1.60;;;19.60;99.90;;;;;;5054142;28;20112;-73
2023/07/11 09:25:39;;;;;;;3.00;1.60;;;19.70;99.90;;;;;;5053651;28;20486;-74
2023/07/11 09:28:18;;;;;;;2.67;1.60;;;19.60;99.90;;;;;;5054074;28;20098;-73
2023/07/11 09:31:10;;;;;;;3.70;1.52;;;19.60;99.90;;;;;;5053482;28;20049;-73
2023/07/11 09:33:43;;;;;;;2.70;1.65;;;19.50;99.90;;;;;;5052843;28;20110;-73
2023/07/11 09:36:26;;;;;;;4.70;1.40;;;19.20;99.90;;;;;;5053551;28;20104;-74
2023/07/11 09:39:02;;;;;;;3.60;1.48;;;19.10;99.90;;;;;;5053555;28;20044;-73
2023/07/11 09:41:53;;;;;;;2.72;1.70;;;19.00;99.90;;;;;;5053367;28;20040;-73
2023/07/11 09:44:19;;;;;;;2.80;1.30;;;19.20;99.90;;;;;;5052482;28;20052;-74
2023/07/11 09:46:45;;;;;;;1.73;1.20;;;19.20;99.90;;;;;;5053652;28;20025;-73
2023/07/11 09:49:24;;;;;;;1.70;1.15;;;19.30;99.90;;;;;;5053656;28;20055;-73
2023/07/11 09:51:59;;;;;;;3.03;1.23;;;19.50;99.90;;;;;;5053401;28;20033;-73
2023/07/11 09:54:28;;;;;;;5.03;1.38;;;19.60;99.90;;;;;;5052435;28;20047;-74
2023/07/11 09:56:55;;;;;;;2.72;1.30;;;19.60;99.90;;;;;;5053634;28;20544;-73
2023/07/11 09:59:21;;;;;;;3.45;1.38;;;19.50;99.90;;;;;;5052578;28;20496;-74
2023/07/11 10:01:53;;;;;;;3.78;1.30;;;19.30;99.90;;;;;;5052464;28;20033;-73
2023/07/11 10:04:25;;;;;;;2.42;1.08;;;19.20;99.90;;;;;;5050274;28;20083;-72
2023/07/11 10:07:03;;;;;;;5.60;1.42;;;19.00;99.90;;;;;;5052150;28;20091;-73
2023/07/11 10:09:31;;;;;;;4.63;1.17;;;19.10;99.90;;;;;;5051671;28;20352;-74
2023/07/11 10:11:59;;;;;;;4.97;1.10;;;19.50;99.90;;;;;;5052630;28;20037;-71
2023/07/11 10:14:28;;;;;;;3.42;1.20;;;19.60;99.90;;;;;;5050274;28;20386;-72
2023/07/11 10:16:56;;;;;;;2.58;1.17;;;19.70;99.90;;;;;;5051744;28;20445;-72
2023/07/11 10:19:22;;;;;;;5.20;1.20;;;19.80;99.90;;;;;;5051240;28;20025;-72
2023/07/11 10:21:49;;;;;;;4.72;1.30;;;19.70;99.90;;;;;;5051705;28;20021;-72
2023/07/11 10:24:24;;;;;;;5.45;1.20;;;19.70;99.90;;;;;;5050900;28;20132;-73
2023/07/11 10:26:58;;;;;;;2.65;1.00;;;19.80;99.90;;;;;;5051736;28;20025;-73
2023/07/11 10:29:27;;;;;;;3.40;1.02;;;19.70;99.90;;;;;;5050600;28;20045;-73
2023/07/11 10:32:02;;;;;;;2.53;1.08;;;19.60;99.90;;;;;;5051348;28;20029;-72
2023/07/11 10:34:44;;;;;;;2.35;1.08;;;19.60;99.90;;;;;;5050887;28;20058;-72
2023/07/11 10:37:21;;;;;;;1.97;1.10;;;19.50;99.90;;;;;;5051256;28;20066;-72
2023/07/11 10:39:51;;;;;;;2.05;1.10;;;19.50;99.90;;;;;;5050955;28;20113;-72
2023/07/11 10:42:29;;;;;;;3.80;1.13;;;19.40;99.90;;;;;;5050787;28;20029;-74
2023/07/11 10:45:20;;;;;;;5.32;1.20;;;19.60;99.90;;;;;;5050923;28;20344;-72
2023/07/11 10:48:33;;;;;;;3.38;1.05;;;19.70;99.90;;;;;;5051051;28;20169;-74
2023/07/11 10:51:33;;;;;;;3.92;1.00;;;19.60;99.90;;;;;;5031840;28;20045;-72
2023/07/11 10:54:12;;;;;;;3.55;1.45;;;19.70;99.90;;;;;;5028140;28;20037;-73
2023/07/11 10:56:42;;;;;;;4.60;1.23;;;19.70;99.90;;;;;;5050348;28;20074;-72
2023/07/11 10:59:16;;;;;;;3.97;1.20;;;19.80;99.90;;;;;;5051114;28;20033;-72
2023/07/11 11:02:22;;;;;;;3.50;1.00;;;19.70;99.90;;;;;;5050754;28;20040;-73
2023/07/11 11:04:57;;;;;;;3.53;1.40;;;19.70;99.90;;;;;;5050806;28;20144;-73
2023/07/11 11:07:45;;;;;;;4.65;1.30;;;19.80;99.90;;;;;;5048719;28;20367;-73
2023/07/11 11:10:29;;;;;;;3.83;1.17;;;19.70;99.90;;;;;;5050248;28;20443;-73
2023/07/11 11:13:32;;;;;;;3.83;1.13;;;19.80;99.90;;;;;;5050751;28;20060;-73
2023/07/11 11:16:23;;;;;;;3.15;1.17;;;19.90;99.90;;;;;;5051042;28;20110;-73
2023/07/11 11:19:13;;;;;;;2.38;0.88;;;19.90;99.90;;;;;;5050502;28;20901;-73
2023/07/11 11:21:59;;;;;;;3.38;1.15;;;20.00;99.90;;;;;;5050110;28;20033;-73
2023/07/11 11:24:37;;;;;;;3.08;0.73;;;20.10;99.90;;;;;;5049767;28;20043;-73
2023/07/11 11:27:27;;;;;;;2.60;0.82;;;20.10;99.90;;;;;;5050549;28;20033;-73
2023/07/11 11:30:01;;;;;;;2.80;0.70;;;20.30;99.90;;;;;;5049705;28;20406;-73
2023/07/11 11:32:33;;;;;;;3.60;1.00;;;20.20;99.90;;;;;;5049812;28;20029;-74
2023/07/11 11:35:20;;;;;;;2.88;1.08;;;20.10;99.90;;;;;;5049928;28;20036;-73
2023/07/11 11:38:05;;;;;;;5.10;1.13;;;20.00;99.90;;;;;;5049991;28;20028;-73
2023/07/11 11:40:36;;;;;;;2.13;0.90;;;20.00;99.90;;;;;;5049305;28;20339;-73
2023/07/11 11:43:05;;;;;;;2.55;0.70;;;20.20;99.90;;;;;;5050062;28;20024;-73
2023/07/11 11:45:32;;;;;;;1.77;0.70;;;20.40;99.90;;;;;;5049316;28;20033;-73
2023/07/11 11:48:02;;;;;;;1.30;0.70;;;20.60;99.90;;;;;;5050196;28;20112;-72
2023/07/11 11:50:31;;;;;;;4.15;0.75;;;20.80;99.90;;;;;;5049586;28;20037;-73
2023/07/11 11:53:46;;;;;;;2.65;0.90;;;20.70;99.90;;;;;;5049305;28;20112;-73
2023/07/11 11:56:17;;;;;;;4.97;1.30;;;20.70;99.90;;;;;;5041898;28;20033;-74
2023/07/11 11:58:53;;;;;;;2.83;1.50;;;20.40;99.90;;;;;;5050841;28;20025;-78
2023/07/11 12:01:56;;;;;;;4.50;1.25;;;20.20;99.90;;;;;;5050678;28;20033;-78
2023/07/11 12:04:37;;;;;;;4.70;1.30;;;20.00;99.90;;;;;;5050375;28;20099;-76
2023/07/11 12:07:12;;;;;;;3.83;1.13;;;19.70;99.90;;;;;;5050569;28;20048;-75
2023/07/11 12:09:47;;;;;;;4.13;1.15;;;19.60;99.90;;;;;;5050585;28;20060;-75
2023/07/11 12:12:18;;;;;;;3.30;1.15;;;19.60;99.90;;;;;;5050834;28;20033;-75
2023/07/11 12:14:51;;;;;;;2.25;1.00;;;19.60;99.90;;;;;;5050278;28;20144;-74
2023/07/11 12:17:29;;;;;;;;;;;19.40;99.90;;;;;;5051339;28;20021;-74
2023/07/11 12:20:00;;;;;;;2.15;0.93;;;19.20;99.90;;;;;;5050618;28;19905;-74
2023/07/11 12:22:46;;;;;;;3.22;0.60;;;19.10;99.90;;;;;;5050377;28;20036;-75
2023/07/11 12:25:20;;;;;;;1.17;0.60;;;19.10;99.90;;;;;;5039212;28;20139;-74
2023/07/11 12:27:53;;;;;;;1.80;0.95;;;19.20;99.90;;;;;;5050800;28;20021;-74
2023/07/11 12:30:34;;;;;;;1.40;0.70;;;19.40;99.90;;;;;;5050612;28;20119;-76
2023/07/11 12:33:32;;;;;;;2.53;0.80;;;19.40;99.90;;;;;;5050791;28;20033;-74
2023/07/11 12:36:07;;;;;;;1.08;0.52;;;19.10;99.90;;;;;;5050869;28;20036;-73
2023/07/11 12:38:39;;;;;;;1.73;0.70;;;19.00;99.90;;;;;;5054042;28;20033;-74
2023/07/11 12:41:11;;;;;;;;;;;18.90;99.90;;;;;;5054728;28;20169;-74
2023/07/11 12:43:40;;;;;;;1.60;0.60;;;19.00;99.90;;;;;;5053614;28;20372;-73
2023/07/11 12:46:17;;;;;;;0.68;0.50;;;19.20;99.90;;;;;;5054155;28;20104;-74
2023/07/11 12:48:47;;;;;;;2.13;1.00;;;19.40;99.90;;;;;;5053057;28;20024;-73
2023/07/11 12:51:30;;;;;;;4.18;0.63;;;19.50;99.90;;;;;;5053602;28;20040;-74
2023/07/11 12:54:01;;;;;;;0.95;0.50;;;19.70;99.90;;;;;;5053134;28;20049;-73
2023/07/11 12:56:28;;;;;;;3.33;0.65;;;19.80;99.90;;;;;;5052370;28;20471;-74
2023/07/11 12:58:54;;;;;;;2.60;0.80;;;19.80;99.90;;;;;;5052843;28;20410;-74
2023/07/11 13:01:20;;;;;;;2.50;0.68;;;20.00;99.90;;;;;;5052678;28;20109;-73
2023/07/11 13:03:46;;;;;;;2.03;0.80;;;20.20;99.90;;;;;;5052531;28;20100;-72
2023/07/11 13:06:32;;;;;;;2.05;0.80;;;20.20;99.90;;;;;;5051337;28;20382;-74